Time;durP1;ratioP1;P1;durP2;ratioP2;P2;SDS_P1;SDS_P2;PMS_P1;PMS_P2;Temp;Humidity;BMP_temperature;BMP_pressure;BME280_temperature;BME280_humidity;BME280_pressure;Samples;Min_cycle;Max_cycle;Signal;HPM_P1;HPM_P2
2022/09/24 00:00:44;;;;;;;23.42;19.77;;;14.10;99.90;;;;;;5052085;28;20049;-54
2022/09/24 00:03:10;;;;;;;21.30;18.95;;;14.10;99.90;;;;;;5054202;28;20508;-55
2022/09/24 00:05:40;;;;;;;20.63;18.35;;;14.00;99.90;;;;;;5052960;28;20459;-56
2022/09/24 00:08:07;;;;;;;25.30;20.92;;;14.00;99.90;;;;;;5054317;28;20029;-55
2022/09/24 00:10:38;;;;;;;24.38;20.63;;;14.00;99.90;;;;;;5054378;28;20032;-56
2022/09/24 00:13:04;;;;;;;24.83;20.95;;;14.00;99.90;;;;;;5053153;28;20025;-56
2022/09/24 00:15:30;;;;;;;27.77;22.98;;;14.00;99.90;;;;;;5049988;28;20056;-56
2022/09/24 00:17:56;;;;;;;30.30;24.00;;;14.00;99.90;;;;;;5065818;28;20048;-55
2022/09/24 00:20:21;;;;;;;26.08;21.20;;;14.00;99.90;;;;;;5048155;28;20035;-56
2022/09/24 00:22:47;;;;;;;23.80;20.02;;;14.00;99.90;;;;;;5069649;28;20056;-56
2022/09/24 00:27:56;;;;;;;18.58;16.23;;;14.00;99.90;;;;;;5054077;28;20113;-56
2022/09/24 00:30:22;;;;;;;25.05;20.65;;;14.00;99.90;;;;;;5054234;28;20100;-55
2022/09/24 00:32:47;;;;;;;28.63;23.63;;;14.00;99.90;;;;;;5053418;28;20029;-54
2022/09/24 00:35:13;;;;;;;29.85;24.42;;;14.00;99.90;;;;;;5053159;28;20530;-55
2022/09/24 00:37:38;;;;;;;30.30;23.95;;;14.00;99.90;;;;;;5051189;28;20013;-55
2022/09/24 00:40:04;;;;;;;29.42;24.20;;;13.90;99.90;;;;;;5041961;28;20021;-54
2022/09/24 00:42:31;;;;;;;29.70;25.33;;;13.90;99.90;;;;;;5051878;28;20057;-56
2022/09/24 00:44:57;;;;;;;26.95;22.38;;;13.90;99.90;;;;;;5042136;28;20465;-55
2022/09/24 00:47:27;;;;;;;30.63;25.23;;;13.90;99.90;;;;;;5056627;28;20029;-55
2022/09/24 00:50:23;;;;;;;32.65;25.83;;;13.90;99.90;;;;;;5052399;28;20480;-56
2022/09/24 00:53:02;;;;;;;29.92;24.15;;;13.80;99.90;;;;;;5053597;28;20029;-56
2022/09/24 00:55:29;;;;;;;33.00;26.20;;;13.80;99.90;;;;;;5052397;28;20021;-53
2022/09/24 00:57:57;;;;;;;31.50;26.42;;;13.80;99.90;;;;;;5056984;28;20681;-54
2022/09/24 01:00:23;;;;;;;35.90;26.73;;;13.70;99.90;;;;;;5053278;28;20029;-54
2022/09/24 01:02:54;;;;;;;36.08;28.35;;;13.60;99.90;;;;;;5052939;28;20032;-55
2022/09/24 01:05:19;;;;;;;34.20;27.75;;;13.60;99.90;;;;;;5068829;28;20021;-55
2022/09/24 01:07:47;;;;;;;36.90;29.77;;;13.60;99.90;;;;;;5052475;28;20389;-56
2022/09/24 01:10:46;;;;;;;32.17;25.48;;;13.50;99.90;;;;;;5053250;28;20016;-55
2022/09/24 01:13:27;;;;;;;33.45;26.75;;;13.50;99.90;;;;;;5052236;28;20025;-55
2022/09/24 01:16:06;;;;;;;33.00;26.55;;;13.50;99.90;;;;;;5049794;28;20013;-54
2022/09/24 01:18:45;;;;;;;34.28;26.50;;;13.40;99.90;;;;;;5043464;28;20029;-56
2022/09/24 01:21:35;;;;;;;32.78;25.77;;;13.50;99.90;;;;;;5068031;28;20013;-53
2022/09/24 01:24:19;;;;;;;32.25;25.52;;;13.40;99.90;;;;;;5051781;28;20021;-56
2022/09/24 01:26:55;;;;;;;32.45;25.55;;;13.40;99.90;;;;;;5045400;28;20033;-55
2022/09/24 01:29:40;;;;;;;31.58;25.17;;;13.40;99.90;;;;;;5046401;28;20095;-55
2022/09/24 01:32:30;;;;;;;30.70;24.17;;;13.40;99.90;;;;;;5045838;28;20156;-55
2022/09/24 01:35:17;;;;;;;31.10;24.58;;;13.40;99.90;;;;;;5043669;28;20111;-56
2022/09/24 01:37:50;;;;;;;30.35;24.83;;;13.40;99.90;;;;;;5047915;28;20021;-56
2022/09/24 01:40:18;;;;;;;28.27;23.00;;;13.30;99.90;;;;;;5042266;28;20017;-56
2022/09/24 01:42:45;;;;;;;31.08;24.58;;;13.30;99.90;;;;;;5051088;28;20028;-55
2022/09/24 01:45:12;;;;;;;27.50;23.02;;;13.40;99.90;;;;;;5052788;28;20485;-56
2022/09/24 01:47:40;;;;;;;28.95;23.63;;;13.30;99.90;;;;;;5052117;28;20058;-56
2022/09/24 01:50:12;;;;;;;28.98;22.45;;;13.30;99.90;;;;;;5052236;28;20112;-56
2022/09/24 01:52:44;;;;;;;28.83;22.17;;;13.30;99.90;;;;;;5052177;28;20024;-56
2022/09/24 01:55:12;;;;;;;27.55;21.65;;;13.30;99.90;;;;;;5052708;28;20080;-56
2022/09/24 01:57:44;;;;;;;25.95;22.17;;;13.30;99.90;;;;;;5051178;28;20138;-55
2022/09/24 02:00:13;;;;;;;26.60;21.60;;;13.30;99.90;;;;;;5052300;28;20021;-54
2022/09/24 02:02:48;;;;;;;25.30;21.20;;;13.20;99.90;;;;;;5051220;28;20397;-55
2022/09/24 02:05:30;;;;;;;26.88;20.35;;;13.20;99.90;;;;;;5052349;28;20020;-55
2022/09/24 02:08:05;;;;;;;23.33;18.90;;;13.20;99.90;;;;;;5051946;28;20021;-55
2022/09/24 02:10:38;;;;;;;25.00;20.23;;;13.30;99.90;;;;;;5052178;28;20123;-56
2022/09/24 02:13:09;;;;;;;23.02;19.75;;;13.20;99.90;;;;;;5052085;28;20063;-55
2022/09/24 02:15:40;;;;;;;23.42;19.30;;;13.30;99.90;;;;;;5041166;28;20133;-56
2022/09/24 02:18:08;;;;;;;25.60;19.20;;;13.30;99.90;;;;;;5050877;28;20024;-55
2022/09/24 02:20:35;;;;;;;26.25;20.65;;;13.30;99.90;;;;;;5051060;28;20074;-56
2022/09/24 02:23:03;;;;;;;23.60;18.48;;;13.30;99.90;;;;;;5051951;28;20098;-56
2022/09/24 02:25:56;;;;;;;24.35;19.02;;;13.30;99.90;;;;;;5041314;28;20037;-56
2022/09/24 02:28:22;;;;;;;22.58;18.52;;;13.30;99.90;;;;;;5062671;28;20057;-54
2022/09/24 02:31:01;;;;;;;23.65;18.55;;;13.30;99.90;;;;;;5056112;28;20052;-56
2022/09/24 02:36:16;;;;;;;22.10;17.75;;;13.30;99.90;;;;;;5040718;28;20090;-55
2022/09/24 02:38:41;;;;;;;23.35;18.33;;;13.30;99.90;;;;;;5056165;28;20530;-53
2022/09/24 02:41:07;;;;;;;20.83;17.80;;;13.30;99.90;;;;;;5055903;28;20057;-55
2022/09/24 02:43:34;;;;;;;24.40;19.00;;;13.30;99.90;;;;;;5055975;28;20025;-56
2022/09/24 02:46:00;;;;;;;20.88;17.63;;;13.30;99.90;;;;;;5054746;28;20112;-55
2022/09/24 02:48:26;;;;;;;22.27;17.70;;;13.30;99.90;;;;;;5055333;28;20116;-53
2022/09/24 02:50:52;;;;;;;21.65;17.10;;;13.30;99.90;;;;;;5055748;28;20033;-55
2022/09/24 02:53:18;;;;;;;20.30;17.48;;;13.30;99.90;;;;;;5055893;28;20081;-55
2022/09/24 02:55:44;;;;;;;20.65;16.63;;;13.40;99.90;;;;;;5055293;28;20096;-55
2022/09/24 02:58:09;;;;;;;20.73;16.63;;;13.40;99.90;;;;;;5055815;28;20021;-55
2022/09/24 03:00:35;;;;;;;20.58;16.33;;;13.40;99.90;;;;;;5063895;28;20017;-55
2022/09/24 03:03:00;;;;;;;20.42;16.52;;;13.40;99.90;;;;;;5048276;28;20500;-56
2022/09/24 03:05:26;;;;;;;19.48;15.77;;;13.40;99.90;;;;;;5054000;28;20025;-55
2022/09/24 03:07:51;;;;;;;19.08;15.30;;;13.40;99.90;;;;;;5055445;28;20353;-55
2022/09/24 03:10:17;;;;;;;22.27;17.73;;;13.40;99.90;;;;;;5054483;28;20029;-55
2022/09/24 03:12:42;;;;;;;19.83;15.25;;;13.40;99.90;;;;;;5054373;28;20020;-56
2022/09/24 03:15:09;;;;;;;19.38;15.38;;;13.40;99.90;;;;;;5054325;28;20120;-54
2022/09/24 03:17:35;;;;;;;21.13;16.00;;;13.40;99.90;;;;;;5054233;28;20086;-55
2022/09/24 03:20:01;;;;;;;19.13;15.48;;;13.40;99.90;;;;;;5055291;28;20024;-55
2022/09/24 03:22:27;;;;;;;20.63;17.10;;;13.40;99.90;;;;;;5053927;28;20043;-56
2022/09/24 03:24:53;;;;;;;20.15;17.08;;;13.40;99.90;;;;;;5053769;28;20028;-55
2022/09/24 03:27:18;;;;;;;21.88;17.50;;;13.40;99.90;;;;;;5055104;28;20021;-56
2022/09/24 03:32:30;;;;;;;20.45;16.40;;;13.40;99.90;;;;;;5049659;28;20097;-55
2022/09/24 03:34:55;;;;;;;23.73;17.35;;;13.40;99.90;;;;;;5054558;28;20013;-56
2022/09/24 03:37:21;;;;;;;19.42;16.70;;;13.40;99.90;;;;;;5053357;28;20067;-54
2022/09/24 03:39:46;;;;;;;21.58;16.50;;;13.40;99.90;;;;;;5053802;28;20048;-54
2022/09/24 03:42:12;;;;;;;23.98;18.48;;;13.40;99.90;;;;;;5053485;28;20094;-54
2022/09/24 03:44:37;;;;;;;20.75;17.45;;;13.40;99.90;;;;;;5041523;28;20033;-56
2022/09/24 03:47:03;;;;;;;23.10;17.33;;;13.40;99.90;;;;;;5054420;28;20036;-54
2022/09/24 03:49:29;;;;;;;22.08;17.58;;;13.30;99.90;;;;;;5052985;28;20059;-56
2022/09/24 03:51:55;;;;;;;22.45;17.33;;;13.30;99.90;;;;;;5054744;28;20096;-56
2022/09/24 03:54:20;;;;;;;22.85;17.90;;;13.30;99.90;;;;;;5054536;28;20485;-56
2022/09/24 03:56:46;;;;;;;22.70;17.80;;;13.30;99.90;;;;;;5066354;28;20572;-54
2022/09/24 03:59:11;;;;;;;21.20;18.08;;;13.30;99.90;;;;;;5054413;28;20028;-56
2022/09/24 04:01:37;;;;;;;23.45;18.30;;;13.30;99.90;;;;;;5053543;28;20465;-55
2022/09/24 04:04:06;;;;;;;22.38;18.13;;;13.30;99.90;;;;;;5054083;28;20147;-55
2022/09/24 04:06:31;;;;;;;24.15;18.58;;;13.30;99.90;;;;;;5054410;28;20048;-55
2022/09/24 04:08:57;;;;;;;23.15;18.27;;;13.30;99.90;;;;;;5053956;28;20472;-51
2022/09/24 04:11:23;;;;;;;24.60;19.20;;;13.30;99.90;;;;;;5054589;28;20044;-55
2022/09/24 04:13:49;;;;;;;23.90;19.50;;;13.30;99.90;;;;;;5041059;28;20018;-52
2022/09/24 04:16:15;;;;;;;24.73;19.85;;;13.30;99.90;;;;;;5054103;28;20021;-55
2022/09/24 04:18:41;;;;;;;24.77;20.20;;;13.30;99.90;;;;;;5052761;28;20104;-54
2022/09/24 04:21:06;;;;;;;24.73;20.85;;;13.30;99.90;;;;;;5054336;28;20017;-56
2022/09/24 04:23:32;;;;;;;26.80;22.15;;;13.30;99.90;;;;;;5052491;28;20362;-56
2022/09/24 04:26:01;;;;;;;27.92;22.58;;;13.30;99.90;;;;;;5045603;28;20025;-54
2022/09/24 04:28:30;;;;;;;27.07;21.90;;;13.30;99.90;;;;;;5053803;28;20104;-55
2022/09/24 04:30:56;;;;;;;26.75;21.38;;;13.30;99.90;;;;;;5053839;28;20103;-55
2022/09/24 04:33:22;;;;;;;25.33;20.55;;;13.30;99.90;;;;;;5052470;28;20384;-55
2022/09/24 04:35:47;;;;;;;25.60;21.02;;;13.30;99.90;;;;;;5049908;28;20013;-54
2022/09/24 04:38:13;;;;;;;28.17;22.65;;;13.30;99.90;;;;;;5044685;28;20017;-55
2022/09/24 04:40:39;;;;;;;28.75;23.02;;;13.30;99.90;;;;;;5053561;28;20047;-56
2022/09/24 04:43:05;;;;;;;28.05;23.75;;;13.30;99.90;;;;;;5052546;28;20099;-54
2022/09/24 04:45:32;;;;;;;27.50;22.08;;;13.30;99.90;;;;;;5053891;28;20205;-54
2022/09/24 04:47:57;;;;;;;27.38;23.20;;;13.30;99.90;;;;;;5051382;28;20060;-55
2022/09/24 04:50:25;;;;;;;32.60;24.33;;;13.30;99.90;;;;;;5052560;28;20063;-56
2022/09/24 04:52:50;;;;;;;31.05;24.77;;;13.30;99.90;;;;;;5050304;28;20032;-54
2022/09/24 04:55:17;;;;;;;30.88;22.40;;;13.30;99.90;;;;;;5050921;28;20029;-56
2022/09/24 04:57:43;;;;;;;28.50;23.50;;;13.30;99.90;;;;;;5051862;28;20013;-55
2022/09/24 05:00:14;;;;;;;33.10;24.17;;;13.30;99.90;;;;;;5052172;28;20013;-56
2022/09/24 05:02:41;;;;;;;31.55;24.02;;;13.40;99.90;;;;;;5051249;28;20025;-54
2022/09/24 05:05:06;;;;;;;28.58;23.45;;;13.40;99.90;;;;;;5047288;28;20033;-56
2022/09/24 05:07:32;;;;;;;27.25;22.48;;;13.40;99.90;;;;;;5050519;28;20370;-53
2022/09/24 05:09:58;;;;;;;28.83;22.95;;;13.40;99.90;;;;;;5051186;28;20029;-55
2022/09/24 05:12:23;;;;;;;25.52;20.98;;;13.40;99.90;;;;;;5051558;28;20381;-55
2022/09/24 05:14:49;;;;;;;25.38;20.50;;;13.40;99.90;;;;;;5051774;28;20110;-55
2022/09/24 05:17:14;;;;;;;28.48;21.77;;;13.40;99.90;;;;;;5046179;28;20040;-56
2022/09/24 05:19:40;;;;;;;27.05;20.85;;;13.40;99.90;;;;;;5050305;28;20024;-53
2022/09/24 05:22:05;;;;;;;24.13;19.60;;;13.40;99.90;;;;;;5046865;28;20028;-55
2022/09/24 05:24:31;;;;;;;23.38;18.55;;;13.40;99.90;;;;;;5047466;28;20110;-55
2022/09/24 05:27:09;;;;;;;23.48;19.35;;;13.50;99.90;;;;;;5049377;28;20162;-54
2022/09/24 05:29:42;;;;;;;23.63;19.70;;;13.50;99.90;;;;;;5049378;28;20169;-55
2022/09/24 05:32:14;;;;;;;25.73;20.05;;;13.50;99.90;;;;;;5051159;28;20025;-52
2022/09/24 05:34:41;;;;;;;24.45;20.25;;;13.40;99.90;;;;;;5041788;28;20032;-56
2022/09/24 05:37:06;;;;;;;26.13;20.00;;;13.50;99.90;;;;;;5045262;28;20040;-56
2022/09/24 05:39:32;;;;;;;25.92;20.83;;;13.40;99.90;;;;;;5048879;28;20021;-55
2022/09/24 05:41:57;;;;;;;25.98;20.83;;;13.40;99.90;;;;;;5047240;28;20497;-56
2022/09/24 05:44:23;;;;;;;25.92;20.23;;;13.40;99.90;;;;;;5048899;28;20032;-55
2022/09/24 05:46:49;;;;;;;27.77;21.90;;;13.40;99.90;;;;;;5044596;28;20029;-55
2022/09/24 05:49:15;;;;;;;28.13;22.48;;;13.40;99.90;;;;;;5048989;28;20029;-55
2022/09/24 05:51:41;;;;;;;24.98;20.98;;;13.40;99.90;;;;;;5046171;28;20100;-56
2022/09/24 05:54:06;;;;;;;24.15;20.77;;;13.40;99.90;;;;;;5044506;28;20037;-55
2022/09/24 05:56:32;;;;;;;28.52;23.38;;;13.40;99.90;;;;;;5053212;28;20027;-55
2022/09/24 05:58:59;;;;;;;27.88;21.38;;;13.40;99.90;;;;;;5047948;28;20375;-56
2022/09/24 06:01:28;;;;;;;27.92;22.60;;;13.40;99.90;;;;;;5046008;28;20476;-56
2022/09/24 06:03:55;;;;;;;25.75;21.42;;;13.40;99.90;;;;;;5053966;28;20029;-56
2022/09/24 06:06:21;;;;;;;25.25;19.75;;;13.40;99.90;;;;;;5044360;28;20032;-55
2022/09/24 06:08:46;;;;;;;25.98;21.58;;;13.40;99.90;;;;;;5043844;28;20071;-54
2022/09/24 06:11:13;;;;;;;29.38;22.27;;;13.40;99.90;;;;;;5037414;28;20037;-55
2022/09/24 06:13:38;;;;;;;26.25;21.23;;;13.50;99.90;;;;;;5049017;28;20036;-54
2022/09/24 06:16:07;;;;;;;27.50;21.48;;;13.40;99.90;;;;;;5040458;28;20289;-55
2022/09/24 06:18:34;;;;;;;26.33;21.97;;;13.40;99.90;;;;;;5047321;28;20029;-56
2022/09/24 06:21:05;;;;;;;25.15;21.60;;;13.40;99.90;;;;;;5052386;28;20040;-56
2022/09/24 06:23:31;;;;;;;25.55;20.33;;;13.50;99.90;;;;;;5047826;28;20029;-54
2022/09/24 06:25:57;;;;;;;25.10;20.45;;;13.50;99.90;;;;;;5048875;28;20051;-55
2022/09/24 06:28:24;;;;;;;28.70;20.88;;;13.50;99.90;;;;;;5049791;28;20049;-55
2022/09/24 06:30:50;;;;;;;24.98;20.33;;;13.50;99.90;;;;;;5049573;28;20032;-56
2022/09/24 06:33:16;;;;;;;25.13;19.98;;;13.50;99.90;;;;;;5046576;28;20075;-56
2022/09/24 06:35:43;;;;;;;28.98;22.45;;;13.50;99.90;;;;;;5050583;28;20033;-55
2022/09/24 06:38:11;;;;;;;23.10;19.27;;;13.50;99.90;;;;;;5051101;28;20480;-56
2022/09/24 06:40:37;;;;;;;25.30;20.15;;;13.50;99.90;;;;;;5047399;28;20036;-55
2022/09/24 06:43:04;;;;;;;23.85;19.75;;;13.50;99.90;;;;;;5045056;28;20025;-56
2022/09/24 06:45:30;;;;;;;23.30;19.02;;;13.50;99.90;;;;;;5046974;28;20067;-56
2022/09/24 06:47:57;;;;;;;24.67;20.50;;;13.50;99.90;;;;;;5036787;28;20061;-54
2022/09/24 06:50:25;;;;;;;24.15;20.10;;;13.50;99.90;;;;;;5048633;28;20384;-56
2022/09/24 06:52:50;;;;;;;21.80;18.83;;;13.50;99.90;;;;;;5048747;28;20374;-52
2022/09/24 06:55:17;;;;;;;24.45;19.27;;;13.50;99.90;;;;;;5050372;28;20020;-56
2022/09/24 06:57:42;;;;;;;22.90;18.13;;;13.50;99.90;;;;;;5050314;28;20127;-55
2022/09/24 07:00:11;;;;;;;21.88;19.48;;;13.50;99.90;;;;;;5050433;28;20556;-55
2022/09/24 07:02:36;;;;;;;23.20;18.38;;;13.50;99.90;;;;;;5049618;28;20492;-54
2022/09/24 07:05:02;;;;;;;24.23;18.75;;;13.50;99.90;;;;;;5049204;28;20025;-55
2022/09/24 07:07:28;;;;;;;22.10;17.70;;;13.50;99.90;;;;;;5047940;28;20028;-56
2022/09/24 07:09:54;;;;;;;21.30;17.90;;;13.60;99.90;;;;;;5049989;28;20025;-55
2022/09/24 07:12:20;;;;;;;22.40;17.85;;;13.60;99.90;;;;;;5052827;28;20025;-56
2022/09/24 07:14:45;;;;;;;22.75;18.38;;;13.60;99.90;;;;;;5054189;28;20078;-55
2022/09/24 07:17:11;;;;;;;19.92;17.02;;;13.60;99.90;;;;;;5053802;28;20485;-55
2022/09/24 07:19:37;;;;;;;23.33;19.25;;;13.60;99.90;;;;;;5052949;28;20013;-55
2022/09/24 07:22:03;;;;;;;21.23;17.73;;;13.60;99.90;;;;;;5053789;28;20603;-55
2022/09/24 07:24:29;;;;;;;21.98;17.42;;;13.60;99.90;;;;;;5037837;28;20061;-55
2022/09/24 07:26:54;;;;;;;20.98;17.98;;;13.60;99.90;;;;;;5053710;28;20091;-55
2022/09/24 07:29:20;;;;;;;20.50;17.08;;;13.60;99.90;;;;;;5052500;28;20047;-55
2022/09/24 07:31:46;;;;;;;19.65;15.60;;;13.60;99.90;;;;;;5053984;28;20025;-56
2022/09/24 07:34:12;;;;;;;22.38;17.60;;;13.60;99.90;;;;;;5052324;28;20037;-56
2022/09/24 07:36:39;;;;;;;22.25;18.00;;;13.60;99.90;;;;;;5053549;28;20014;-56
2022/09/24 07:39:04;;;;;;;20.05;17.40;;;13.60;99.90;;;;;;5049764;28;20021;-56
2022/09/24 07:41:30;;;;;;;18.92;15.98;;;13.60;99.90;;;;;;5052452;28;20400;-55
2022/09/24 07:43:55;;;;;;;18.20;16.17;;;13.70;99.90;;;;;;5053619;28;20025;-56
2022/09/24 07:46:21;;;;;;;17.95;15.32;;;13.70;99.90;;;;;;5052166;28;20473;-55
2022/09/24 07:48:48;;;;;;;20.40;15.65;;;13.70;99.90;;;;;;5053701;28;20108;-55
2022/09/24 07:51:13;;;;;;;17.75;15.13;;;13.70;99.90;;;;;;5051976;28;20442;-55
2022/09/24 07:53:39;;;;;;;19.27;15.73;;;13.70;99.90;;;;;;5050834;28;20029;-55
2022/09/24 07:56:05;;;;;;;19.50;15.65;;;13.80;99.90;;;;;;5053955;28;20025;-54
2022/09/24 07:58:30;;;;;;;17.08;14.18;;;13.80;99.90;;;;;;5053506;28;20382;-55
2022/09/24 08:01:00;;;;;;;15.68;13.70;;;13.80;99.90;;;;;;5053049;28;20115;-56
2022/09/24 08:03:26;;;;;;;16.10;13.32;;;13.90;99.90;;;;;;5054042;28;20021;-56
2022/09/24 08:05:56;;;;;;;17.05;14.27;;;13.90;99.90;;;;;;5053858;28;20424;-56
2022/09/24 08:08:21;;;;;;;;;;;13.90;99.90;;;;;;5055027;28;20128;-55
2022/09/24 08:10:47;;;;;;;17.58;14.57;;;13.80;99.90;;;;;;5053546;28;20006;-55
2022/09/24 08:13:13;;;;;;;15.73;13.38;;;13.80;99.90;;;;;;5053359;28;20512;-56
2022/09/24 08:15:39;;;;;;;15.95;12.95;;;13.90;99.90;;;;;;5052830;28;20020;-56
2022/09/24 08:18:05;;;;;;;18.80;14.27;;;13.90;99.90;;;;;;5064974;28;20032;-57
2022/09/24 08:20:31;;;;;;;17.98;15.70;;;13.90;99.90;;;;;;5052570;28;20039;-55
2022/09/24 08:23:01;;;;;;;16.58;14.27;;;13.90;99.90;;;;;;5070158;28;20032;-56
2022/09/24 08:25:30;;;;;;;16.20;14.38;;;13.90;99.90;;;;;;5048612;28;20024;-57
2022/09/24 08:27:59;;;;;;;17.35;14.65;;;13.90;99.90;;;;;;5043470;28;20079;-56
2022/09/24 08:30:25;;;;;;;;;;;13.90;99.90;;;;;;5064632;28;20103;-55
2022/09/24 08:32:51;;;;;;;16.70;13.38;;;13.90;99.90;;;;;;5061395;28;20011;-55
2022/09/24 08:35:17;;;;;;;20.38;15.57;;;13.90;99.90;;;;;;5060319;28;20020;-56
2022/09/24 08:37:43;;;;;;;18.90;15.63;;;13.90;99.90;;;;;;5049616;28;20047;-55
2022/09/24 08:40:22;;;;;;;19.38;17.27;;;14.00;99.90;;;;;;5052232;28;20049;-55
2022/09/24 08:43:03;;;;;;;18.05;16.08;;;14.00;99.90;;;;;;5052015;28;20029;-56
2022/09/24 08:48:28;;;;;;;18.15;15.27;;;13.90;99.90;;;;;;5054204;28;20075;-56
2022/09/24 08:51:01;;;;;;;16.23;14.38;;;13.90;99.90;;;;;;5054507;28;20499;-54
2022/09/24 08:53:31;;;;;;;18.65;16.58;;;13.90;99.90;;;;;;5054569;28;20491;-55
2022/09/24 08:55:59;;;;;;;18.38;15.50;;;13.90;99.90;;;;;;5052685;28;20362;-55
2022/09/24 08:58:43;;;;;;;21.67;16.00;;;13.90;99.90;;;;;;5053959;28;20048;-56
2022/09/24 09:01:11;;;;;;;19.45;17.08;;;14.00;99.90;;;;;;5054609;28;20024;-56
2022/09/24 09:03:44;;;;;;;21.02;18.05;;;14.00;99.90;;;;;;5066198;28;20086;-55
2022/09/24 09:06:31;;;;;;;19.23;17.02;;;14.00;99.90;;;;;;5051785;28;20473;-55
2022/09/24 09:09:20;;;;;;;18.63;15.48;;;13.90;99.90;;;;;;5052853;28;20037;-55
2022/09/24 09:11:55;;;;;;;22.23;17.58;;;14.00;99.90;;;;;;5050334;28;20036;-55
2022/09/24 09:14:39;;;;;;;20.95;16.88;;;14.00;99.90;;;;;;5052378;28;20032;-56
2022/09/24 09:17:29;;;;;;;22.00;18.20;;;14.00;99.90;;;;;;5055424;28;20013;-55
2022/09/24 09:19:57;;;;;;;20.85;17.05;;;13.90;99.90;;;;;;5047247;28;20044;-56
2022/09/24 09:22:28;;;;;;;22.30;18.17;;;13.90;99.90;;;;;;5053710;28;20048;-54
2022/09/24 09:24:57;;;;;;;20.27;17.00;;;14.00;99.90;;;;;;5051946;28;20017;-55
2022/09/24 09:27:26;;;;;;;21.23;18.90;;;14.00;99.90;;;;;;5054027;28;20024;-56
2022/09/24 09:29:56;;;;;;;21.20;16.33;;;14.00;99.90;;;;;;5035288;28;20022;-56
2022/09/24 09:32:46;;;;;;;17.65;15.77;;;14.00;99.90;;;;;;5035512;28;20045;-56
2022/09/24 09:35:42;;;;;;;22.05;18.13;;;14.00;99.90;;;;;;5037375;28;20053;-54
2022/09/24 09:38:29;;;;;;;21.83;18.50;;;14.00;99.90;;;;;;5032119;28;20029;-57
2022/09/24 09:41:13;;;;;;;22.40;18.42;;;14.00;99.90;;;;;;5055027;28;20524;-55
2022/09/24 09:43:42;;;;;;;18.95;16.80;;;14.00;99.90;;;;;;5042389;28;20412;-56
2022/09/24 09:46:24;;;;;;;18.60;15.88;;;14.00;99.90;;;;;;5049124;28;20033;-56
2022/09/24 09:48:54;;;;;;;20.70;17.60;;;14.10;99.90;;;;;;5048803;28;20041;-55
2022/09/24 09:51:26;;;;;;;21.80;18.08;;;14.10;99.90;;;;;;5049428;28;20056;-56
2022/09/24 09:54:02;;;;;;;18.45;16.45;;;14.10;99.90;;;;;;5050558;28;20078;-56
2022/09/24 09:56:43;;;;;;;19.17;16.33;;;14.20;99.90;;;;;;5052331;28;20021;-54
2022/09/24 09:59:11;;;;;;;22.63;17.63;;;14.20;99.90;;;;;;5050065;28;20029;-56
2022/09/24 10:01:40;;;;;;;20.70;18.05;;;14.20;99.90;;;;;;5046909;28;20020;-56
2022/09/24 10:04:22;;;;;;;24.58;19.35;;;14.20;99.90;;;;;;5050179;28;20024;-55
2022/09/24 10:06:48;;;;;;;21.55;18.33;;;14.20;99.90;;;;;;5051058;28;20032;-56
2022/09/24 10:09:18;;;;;;;22.70;19.60;;;14.10;99.90;;;;;;5050965;28;20385;-54
2022/09/24 10:11:45;;;;;;;22.77;19.92;;;14.10;99.90;;;;;;5039640;28;20029;-55
2022/09/24 10:14:17;;;;;;;22.85;17.83;;;14.10;99.90;;;;;;5049104;28;20029;-54
2022/09/24 10:16:50;;;;;;;22.30;17.73;;;14.10;99.90;;;;;;5050920;28;20044;-56
2022/09/24 10:19:27;;;;;;;22.15;19.17;;;14.10;99.90;;;;;;5050767;28;20024;-57
2022/09/24 10:21:56;;;;;;;22.67;18.92;;;14.10;99.90;;;;;;5048605;28;20537;-55
2022/09/24 10:24:24;;;;;;;22.43;18.27;;;14.10;99.90;;;;;;5049266;28;20488;-56
2022/09/24 10:26:50;;;;;;;21.15;18.40;;;14.20;99.90;;;;;;5048419;28;20021;-54
2022/09/24 10:32:25;;;;;;;20.08;17.65;;;14.20;99.90;;;;;;5050514;28;20036;-55
2022/09/24 10:35:04;;;;;;;19.85;16.45;;;14.20;99.90;;;;;;5050221;28;20025;-55
2022/09/24 10:37:30;;;;;;;25.20;19.75;;;14.30;99.90;;;;;;5044291;28;20033;-55
2022/09/24 10:40:11;;;;;;;23.85;20.02;;;14.20;99.90;;;;;;5049234;28;20075;-56
2022/09/24 10:42:37;;;;;;;21.40;19.10;;;14.20;99.90;;;;;;5051034;28;20041;-56
2022/09/24 10:45:03;;;;;;;23.42;18.83;;;14.10;99.90;;;;;;5049041;28;20379;-55
2022/09/24 10:47:56;;;;;;;23.80;19.60;;;14.10;99.90;;;;;;5054803;28;20024;-56
2022/09/24 10:50:31;;;;;;;23.75;19.35;;;14.20;99.90;;;;;;5068012;28;20117;-56
2022/09/24 10:53:02;;;;;;;24.65;19.77;;;14.10;99.90;;;;;;5053432;28;20067;-55
2022/09/24 10:55:46;;;;;;;22.45;19.58;;;14.20;99.90;;;;;;5051931;28;20029;-56
2022/09/24 10:58:39;;;;;;;23.52;20.08;;;14.20;99.90;;;;;;5054214;28;20021;-55
2022/09/24 11:01:27;;;;;;;24.83;18.63;;;14.30;99.90;;;;;;5053294;28;20035;-55
2022/09/24 11:04:04;;;;;;;22.57;18.60;;;14.30;99.90;;;;;;5048880;28;20028;-56
2022/09/24 11:07:06;;;;;;;23.60;19.33;;;14.30;99.90;;;;;;5064461;28;20271;-56
2022/09/24 11:09:35;;;;;;;24.10;20.23;;;14.30;99.90;;;;;;5055601;28;20025;-56
2022/09/24 11:12:45;;;;;;;25.77;21.52;;;14.30;99.90;;;;;;5055307;28;20096;-56
2022/09/24 11:15:28;;;;;;;24.48;19.50;;;14.30;99.90;;;;;;5044374;28;20056;-56
2022/09/24 11:18:26;;;;;;;25.60;20.42;;;14.30;99.90;;;;;;5052432;28;20025;-56
2022/09/24 11:20:51;;;;;;;25.33;20.65;;;14.40;99.90;;;;;;5050895;28;20044;-56
2022/09/24 11:23:52;;;;;;;23.20;19.77;;;14.30;99.90;;;;;;5050696;28;20027;-57
2022/09/24 11:26:32;;;;;;;22.15;18.77;;;14.40;99.90;;;;;;5048964;28;20017;-55
2022/09/24 11:29:08;;;;;;;22.80;18.42;;;14.40;99.90;;;;;;5053617;28;20024;-56
2022/09/24 11:31:44;;;;;;;23.85;18.85;;;14.50;99.90;;;;;;5051946;28;20075;-56
2022/09/24 11:34:43;;;;;;;22.55;19.48;;;14.50;99.90;;;;;;5049053;28;20028;-56
2022/09/24 11:37:53;;;;;;;24.05;20.98;;;14.60;99.90;;;;;;5053454;28;20043;-56
2022/09/24 11:40:25;;;;;;;22.10;18.58;;;14.60;99.90;;;;;;5050770;28;20096;-57
2022/09/24 11:43:09;;;;;;;19.95;17.67;;;14.60;99.90;;;;;;5053308;28;20104;-55
2022/09/24 11:45:57;;;;;;;20.83;17.70;;;14.60;99.90;;;;;;5048610;28;20025;-56
2022/09/24 11:48:49;;;;;;;21.10;18.80;;;14.70;99.90;;;;;;5053123;28;20067;-56
2022/09/24 11:51:50;;;;;;;21.27;17.73;;;14.70;99.90;;;;;;5052404;28;20017;-54
2022/09/24 11:54:30;;;;;;;23.05;18.15;;;14.70;99.90;;;;;;5050204;28;20032;-55
2022/09/24 11:57:03;;;;;;;22.40;19.02;;;14.70;99.90;;;;;;5048780;28;20485;-56
2022/09/24 11:59:34;;;;;;;20.52;17.70;;;14.70;99.90;;;;;;5050098;28;20685;-56
2022/09/24 12:02:09;;;;;;;20.25;18.05;;;14.70;99.90;;;;;;5053795;28;20021;-56
2022/09/24 12:05:06;;;;;;;19.20;17.15;;;14.70;99.90;;;;;;5049168;28;20033;-56
2022/09/24 12:07:54;;;;;;;19.98;16.33;;;14.80;99.90;;;;;;5050202;28;20037;-55
2022/09/24 12:10:35;;;;;;;20.85;17.83;;;14.80;99.90;;;;;;5064487;28;20067;-56
2022/09/24 12:13:19;;;;;;;19.25;16.35;;;14.90;99.90;;;;;;5051922;28;20025;-57
2022/09/24 12:15:56;;;;;;;20.58;17.27;;;14.90;99.90;;;;;;5050556;28;20013;-55
2022/09/24 12:18:35;;;;;;;19.33;16.48;;;15.00;99.90;;;;;;5052240;28;20112;-56
2022/09/24 12:21:15;;;;;;;20.50;17.55;;;15.00;99.90;;;;;;5051208;28;20474;-55
2022/09/24 12:23:44;;;;;;;21.30;18.05;;;15.00;99.90;;;;;;5067329;28;20079;-55
2022/09/24 12:26:15;;;;;;;19.90;17.23;;;14.90;99.90;;;;;;5052955;28;20074;-56
2022/09/24 12:36:00;;;;;;;20.45;17.88;;;15.00;99.90;;;;;;5028501;28;20389;-55
2022/09/24 12:38:32;;;;;;;18.63;16.53;;;15.00;99.90;;;;;;5067806;28;20023;-55
2022/09/24 12:41:15;;;;;;;19.77;16.92;;;15.10;99.90;;;;;;5050619;28;20069;-56
2022/09/24 12:44:07;;;;;;;19.55;17.00;;;15.10;99.90;;;;;;5052458;28;20079;-56
2022/09/24 12:46:47;;;;;;;20.15;16.85;;;15.20;99.90;;;;;;5045629;28;20036;-56
2022/09/24 12:49:25;;;;;;;19.70;17.05;;;15.10;99.90;;;;;;5053465;28;20515;-54
2022/09/24 12:52:00;;;;;;;17.95;15.65;;;15.10;99.90;;;;;;5053335;28;20500;-56
2022/09/24 12:54:34;;;;;;;19.63;16.58;;;15.10;99.90;;;;;;5048511;28;20021;-56
2022/09/24 12:57:19;;;;;;;17.90;15.27;;;15.20;99.90;;;;;;5051793;28;20017;-53
2022/09/24 12:59:55;;;;;;;14.48;12.93;;;15.20;99.90;;;;;;5051786;28;20013;-56
2022/09/24 13:02:23;;;;;;;12.25;10.73;;;15.20;99.90;;;;;;5051945;28;20116;-56
2022/09/24 13:05:04;;;;;;;11.20;9.85;;;15.30;99.90;;;;;;5049121;28;20044;-54
2022/09/24 13:07:38;;;;;;;10.77;8.75;;;15.40;99.90;;;;;;5050344;28;20020;-55
2022/09/24 13:10:16;;;;;;;9.32;8.18;;;15.50;99.90;;;;;;5051648;28;20031;-56